Time;durP1;ratioP1;P1;durP2;ratioP2;P2;SDS_P1;SDS_P2;PMS_P1;PMS_P2;Temp;Humidity;BMP_temperature;BMP_pressure;BME280_temperature;BME280_humidity;BME280_pressure;Samples;Min_cycle;Max_cycle;Signal;HPM_P1;HPM_P2
2022/08/04 00:03:18;;;;;;;1.55;0.70;;;26.50;50.40;25.40;100969.00;;;;5079480;28;20493;-66
2022/08/04 00:06:30;;;;;;;1.48;0.80;;;26.50;50.40;25.40;100964.00;;;;5079639;28;20375;-66
2022/08/04 00:09:27;;;;;;;2.35;0.70;;;26.50;50.40;25.30;100958.00;;;;5073770;28;20053;-66
2022/08/04 00:12:14;;;;;;;2.60;1.00;;;26.50;50.40;25.30;100961.00;;;;5075411;28;20093;-66
2022/08/04 00:15:03;;;;;;;3.75;1.00;;;26.50;50.40;25.40;100958.00;;;;5069999;28;20632;-66
2022/08/04 00:18:02;;;;;;;1.65;0.68;;;26.50;50.40;25.40;100964.00;;;;5071952;28;20115;-66
2022/08/04 00:20:48;;;;;;;1.90;1.10;;;26.50;50.40;25.40;100954.00;;;;5073136;28;20419;-66
2022/08/04 00:23:35;;;;;;;1.70;0.88;;;26.40;51.00;25.40;100963.00;;;;5051920;28;20054;-66
2022/08/04 00:26:21;;;;;;;2.00;0.90;;;26.40;50.30;25.40;100946.00;;;;5077145;28;20452;-66
2022/08/04 00:29:07;;;;;;;2.20;0.70;;;26.50;50.40;25.40;100954.00;;;;5083760;28;20046;-66
2022/08/04 00:31:56;;;;;;;1.40;0.88;;;26.50;50.40;25.40;100948.00;;;;5085327;28;20051;-66
2022/08/04 00:34:42;;;;;;;1.67;0.63;;;26.40;50.30;25.40;100946.00;;;;5073814;28;20125;-66
2022/08/04 00:37:28;;;;;;;1.98;0.70;;;26.50;50.40;25.40;100940.00;;;;5086081;28;20055;-66
2022/08/04 00:40:39;;;;;;;2.92;0.80;;;26.50;50.40;25.40;100949.00;;;;5059098;28;20047;-66
2022/08/04 00:43:33;;;;;;;2.63;1.08;;;26.50;50.40;25.40;100946.00;;;;5086306;28;20497;-66
2022/08/04 00:46:50;;;;;;;1.63;0.85;;;26.50;50.40;25.40;100946.00;;;;5086970;28;20484;-66
2022/08/04 00:50:04;;;;;;;1.10;0.70;;;26.40;51.00;25.30;100949.00;;;;5089992;28;20461;-66
2022/08/04 00:53:01;;;;;;;2.60;1.00;;;26.50;50.40;25.30;100946.00;;;;5073662;28;20034;-66
2022/08/04 00:56:15;;;;;;;1.40;0.80;;;26.50;50.40;25.30;100946.00;;;;5072971;28;20040;-66
2022/08/04 00:59:35;;;;;;;2.50;0.90;;;26.50;50.40;25.30;100946.00;;;;5050665;28;20072;-66
2022/08/04 01:02:30;;;;;;;2.55;1.05;;;26.40;50.30;25.30;100942.00;;;;5089712;28;20032;-66
2022/08/04 01:05:59;;;;;;;1.80;0.93;;;26.50;50.40;25.30;100944.00;;;;5072663;28;20039;-66
2022/08/04 01:09:04;;;;;;;1.30;0.60;;;26.40;50.30;25.30;100940.00;;;;5068076;28;20044;-66
2022/08/04 01:12:41;;;;;;;2.70;1.17;;;26.40;51.00;25.30;100944.00;;;;5088617;28;20485;-66
2022/08/04 01:15:55;;;;;;;2.67;1.30;;;26.40;50.40;25.30;100942.00;;;;5068205;28;20056;-66
2022/08/04 01:19:01;;;;;;;1.27;0.80;;;26.40;50.30;25.30;100936.00;;;;5086244;28;20668;-65
2022/08/04 01:22:48;;;;;;;2.67;1.00;;;26.40;50.40;25.30;100931.00;;;;5073522;28;20662;-66
2022/08/04 01:25:53;;;;;;;1.42;0.95;;;26.30;50.30;25.30;100929.00;;;;5083657;28;20044;-66
2022/08/04 01:29:04;;;;;;;0.90;0.63;;;26.40;50.40;25.30;100924.00;;;;5064863;28;20040;-66
2022/08/04 01:32:12;;;;;;;4.13;1.10;;;26.40;50.40;25.30;100921.00;;;;5092110;28;20043;-66
2022/08/04 01:35:24;;;;;;;1.27;0.80;;;26.40;50.40;25.30;100920.00;;;;5060541;28;20107;-66
2022/08/04 01:38:46;;;;;;;2.13;0.90;;;26.40;50.40;25.30;100917.00;;;;5074137;28;20082;-66
2022/08/04 01:41:32;;;;;;;2.22;0.90;;;26.40;50.40;25.30;100920.00;;;;5070517;28;20119;-66
2022/08/04 01:44:18;;;;;;;2.22;1.00;;;26.40;50.40;25.30;100922.00;;;;5070611;28;20076;-66
2022/08/04 01:47:04;;;;;;;1.38;0.80;;;26.40;50.50;25.30;100911.00;;;;5057496;28;20040;-66
2022/08/04 01:49:50;;;;;;;2.05;1.15;;;26.40;50.50;25.30;100913.00;;;;5064055;28;20039;-66
2022/08/04 01:52:40;;;;;;;2.50;0.90;;;26.40;50.50;25.30;100911.00;;;;5072417;28;20040;-66
2022/08/04 01:55:27;;;;;;;1.38;0.88;;;26.40;50.50;25.30;100918.00;;;;5073901;28;20051;-66
2022/08/04 01:58:13;;;;;;;1.50;0.77;;;26.40;50.50;25.30;100904.00;;;;5067747;28;20044;-66
2022/08/04 02:01:10;;;;;;;3.95;1.23;;;26.40;50.50;25.30;100908.00;;;;5071045;28;20809;-66
2022/08/04 02:03:56;;;;;;;1.70;0.90;;;26.40;50.50;25.30;100906.00;;;;5082124;28;20477;-66
2022/08/04 02:06:45;;;;;;;2.53;0.82;;;26.30;50.40;25.30;100899.00;;;;5086221;28;20032;-66
2022/08/04 02:10:04;;;;;;;2.75;1.20;;;26.40;50.50;25.30;100893.00;;;;5084465;28;20040;-66
2022/08/04 02:13:10;;;;;;;1.10;0.57;;;26.40;50.50;25.30;100898.00;;;;5079395;28;20035;-66
2022/08/04 02:16:05;;;;;;;2.90;1.30;;;26.40;50.50;25.30;100898.00;;;;5070659;28;20081;-66
2022/08/04 02:19:17;;;;;;;2.38;0.90;;;26.40;50.50;25.30;100895.00;;;;5083464;28;20035;-66
2022/08/04 02:22:11;;;;;;;3.65;1.20;;;26.40;50.50;25.30;100894.00;;;;5069267;28;20071;-66
2022/08/04 02:25:08;;;;;;;2.55;0.98;;;26.40;50.50;25.30;100898.00;;;;5071949;28;20032;-66
2022/08/04 02:28:34;;;;;;;1.20;0.77;;;26.40;50.50;25.30;100891.00;;;;5070079;28;20032;-66
2022/08/04 02:31:32;;;;;;;2.88;1.10;;;26.40;50.50;25.30;100894.00;;;;4973375;28;20038;-66
2022/08/04 02:35:01;;;;;;;2.08;0.70;;;26.40;50.50;25.30;100886.00;;;;5079692;28;20050;-66
2022/08/04 02:37:51;;;;;;;3.10;1.38;;;26.40;50.50;25.30;100881.00;;;;5073745;28;20117;-66
2022/08/04 02:40:38;;;;;;;1.65;0.85;;;26.40;50.50;25.30;100881.00;;;;5071093;28;20055;-66
2022/08/04 02:43:24;;;;;;;2.87;0.90;;;26.40;50.50;25.30;100878.00;;;;5071715;28;20048;-66
2022/08/04 02:46:10;;;;;;;2.58;1.08;;;26.40;50.50;25.30;100871.00;;;;5072869;28;20329;-66
2022/08/04 02:48:56;;;;;;;2.13;0.95;;;26.40;50.50;25.30;100873.00;;;;5069039;28;20497;-66
2022/08/04 02:51:50;;;;;;;2.28;1.30;;;26.40;50.50;25.30;100866.00;;;;5069281;28;20403;-66
2022/08/04 02:54:39;;;;;;;3.47;1.05;;;26.40;50.50;25.30;100869.00;;;;5067134;28;20516;-66
2022/08/04 02:57:26;;;;;;;2.80;0.95;;;26.30;50.40;25.30;100859.00;;;;5073319;28;20036;-66
2022/08/04 03:00:13;;;;;;;3.63;1.15;;;26.40;50.50;25.30;100859.00;;;;5054659;28;20033;-66
2022/08/04 03:03:48;;;;;;;4.00;1.35;;;26.40;50.50;25.30;100852.00;;;;5072983;28;20036;-66
2022/08/04 03:07:17;;;;;;;3.55;1.13;;;26.30;50.40;25.30;100853.00;;;;5058526;28;20042;-66
2022/08/04 03:10:29;;;;;;;2.53;0.98;;;26.40;50.50;25.20;100858.00;;;;5082289;28;20055;-66
2022/08/04 03:13:48;;;;;;;2.65;1.02;;;26.40;50.50;25.20;100853.00;;;;5071199;28;20044;-66
2022/08/04 03:17:08;;;;;;;1.33;0.95;;;26.40;50.50;25.20;100853.00;;;;5075692;28;20036;-66
2022/08/04 03:20:21;;;;;;;2.45;1.00;;;26.30;50.50;25.20;100853.00;;;;5082570;28;20038;-66
2022/08/04 03:23:43;;;;;;;4.95;1.08;;;26.40;50.50;25.20;100852.00;;;;5084425;28;20040;-66
2022/08/04 03:27:08;;;;;;;2.35;0.80;;;26.30;50.50;25.20;100847.00;;;;5077809;28;20045;-66
2022/08/04 03:30:19;;;;;;;3.88;1.08;;;26.40;50.60;25.20;100844.00;;;;5076898;28;20039;-66
2022/08/04 03:33:42;;;;;;;3.83;1.20;;;26.30;50.50;25.20;100850.00;;;;5060645;28;20044;-66
2022/08/04 03:37:28;;;;;;;3.28;0.98;;;26.30;50.60;25.20;100844.00;;;;5074280;28;20047;-66
2022/08/04 03:40:39;;;;;;;1.42;0.85;;;26.30;50.60;25.20;100848.00;;;;5084788;28;20068;-66
2022/08/04 03:43:41;;;;;;;1.42;0.88;;;26.30;50.60;25.20;100846.00;;;;5085413;28;20044;-66
2022/08/04 03:47:06;;;;;;;2.70;1.33;;;26.40;50.70;25.20;100843.00;;;;5071451;28;20115;-66
2022/08/04 03:50:16;;;;;;;2.40;1.30;;;26.30;50.60;25.20;100848.00;;;;5076745;28;20043;-66
2022/08/04 03:53:46;;;;;;;1.90;0.90;;;26.30;50.60;25.20;100849.00;;;;5078997;28;20138;-66
2022/08/04 03:57:21;;;;;;;1.52;0.90;;;26.20;50.60;25.20;100844.00;;;;5066522;28;20044;-66
2022/08/04 04:00:11;;;;;;;2.80;1.40;;;26.30;50.70;25.20;100832.00;;;;5078508;28;20078;-66
2022/08/04 04:03:34;;;;;;;2.08;1.25;;;26.30;50.60;25.20;100831.00;;;;5086789;28;20111;-66
2022/08/04 04:06:45;;;;;;;2.03;1.00;;;26.30;50.70;25.20;100827.00;;;;5085953;28;20497;-66
2022/08/04 04:09:46;;;;;;;2.72;1.10;;;26.30;50.70;25.20;100825.00;;;;5082935;28;20048;-66
2022/08/04 04:12:54;;;;;;;2.55;1.20;;;26.30;50.70;25.20;100831.00;;;;5086063;28;20051;-66
2022/08/04 04:15:59;;;;;;;2.30;0.98;;;26.30;50.70;25.20;100829.00;;;;5077719;28;20044;-66
2022/08/04 04:19:20;;;;;;;5.55;1.30;;;26.30;50.70;25.20;100829.00;;;;5062757;28;20278;-66
2022/08/04 04:22:33;;;;;;;4.60;1.30;;;26.30;50.70;25.20;100826.00;;;;5043028;28;20032;-66
2022/08/04 04:25:35;;;;;;;2.92;1.10;;;26.20;50.60;25.20;100830.00;;;;5073786;28;20087;-66
2022/08/04 04:28:49;;;;;;;2.55;1.30;;;26.30;50.70;25.20;100831.00;;;;5071380;28;20097;-66
2022/08/04 04:31:50;;;;;;;1.70;0.90;;;26.30;50.70;25.20;100826.00;;;;5072594;28;20071;-66
2022/08/04 04:35:13;;;;;;;5.25;1.23;;;26.30;50.70;25.20;100823.00;;;;5079790;28;20529;-66
2022/08/04 04:38:30;;;;;;;3.47;1.30;;;26.30;50.70;25.20;100825.00;;;;5088312;28;20047;-66
2022/08/04 04:41:47;;;;;;;1.73;0.85;;;26.30;50.70;25.20;100824.00;;;;5082804;28;20050;-66
2022/08/04 04:44:55;;;;;;;1.75;1.02;;;26.30;50.70;25.20;100815.00;;;;5081803;28;20052;-66
2022/08/04 04:48:04;;;;;;;3.42;1.10;;;26.30;50.70;25.20;100819.00;;;;5057118;28;20035;-66
2022/08/04 04:51:27;;;;;;;1.92;1.00;;;26.30;50.70;25.20;100819.00;;;;5074068;28;20064;-66
2022/08/04 04:54:42;;;;;;;2.38;1.10;;;26.20;50.70;25.20;100820.00;;;;5062641;28;20401;-66
2022/08/04 04:57:33;;;;;;;4.18;1.30;;;26.20;50.70;25.20;100825.00;;;;5047355;28;20048;-66
2022/08/04 05:00:19;;;;;;;2.38;1.00;;;26.30;50.70;25.20;100822.00;;;;5072380;28;20115;-66
2022/08/04 05:03:40;;;;;;;2.97;0.90;;;26.30;51.50;25.20;100812.00;;;;5077709;28;20044;-66
2022/08/04 05:07:08;;;;;;;3.83;1.77;;;26.20;50.70;25.20;100815.00;;;;5079937;28;20075;-66
2022/08/04 05:09:54;;;;;;;1.58;1.00;;;26.30;50.80;25.20;100824.00;;;;5085426;28;20036;-66
2022/08/04 05:13:05;;;;;;;2.80;1.00;;;26.30;50.70;25.20;100820.00;;;;5085466;28;20042;-66
2022/08/04 05:15:54;;;;;;;3.63;1.20;;;26.20;50.70;25.20;100820.00;;;;5073387;28;20496;-66
2022/08/04 05:18:41;;;;;;;2.15;1.23;;;26.30;50.80;25.20;100814.00;;;;5070021;28;20069;-66
2022/08/04 05:21:47;;;;;;;2.47;0.90;;;26.30;50.80;25.20;100812.00;;;;5046056;28;20071;-66
2022/08/04 05:24:39;;;;;;;2.03;1.00;;;26.30;50.80;25.20;100808.00;;;;5072533;28;20048;-66
2022/08/04 05:27:35;;;;;;;2.38;1.10;;;26.30;50.80;25.20;100804.00;;;;5077687;28;20036;-66
2022/08/04 05:30:21;;;;;;;3.63;1.30;;;26.30;50.70;25.20;100804.00;;;;5069694;28;20063;-66
2022/08/04 05:33:10;;;;;;;3.63;1.20;;;26.30;50.70;25.20;100807.00;;;;5060900;28;20040;-66
2022/08/04 05:35:58;;;;;;;5.40;1.58;;;26.30;50.70;25.20;100802.00;;;;5058407;28;20048;-66
2022/08/04 05:38:44;;;;;;;2.00;1.13;;;26.20;50.60;25.20;100806.00;;;;5058495;28;20036;-66
2022/08/04 05:41:30;;;;;;;3.95;1.27;;;26.30;50.70;25.20;100802.00;;;;5076402;28;20036;-66
2022/08/04 05:44:18;;;;;;;3.47;1.00;;;26.30;51.00;25.20;100803.00;;;;5071267;28;20062;-66
2022/08/04 05:47:04;;;;;;;;;;;26.30;50.80;25.20;100805.00;;;;5074008;28;20402;-66
2022/08/04 05:49:50;;;;;;;5.40;1.65;;;26.30;50.70;25.20;100801.00;;;;5083609;28;19912;-66
2022/08/04 05:52:36;;;;;;;3.05;1.05;;;26.30;50.60;25.20;100801.00;;;;5071143;28;20044;-66
2022/08/04 05:55:22;;;;;;;3.47;1.30;;;26.30;50.60;25.20;100797.00;;;;5088489;28;20040;-66
2022/08/04 05:58:08;;;;;;;2.58;1.10;;;26.30;50.60;25.20;100800.00;;;;5069533;28;20393;-66
2022/08/04 06:00:54;;;;;;;2.65;1.10;;;26.20;50.60;25.20;100803.00;;;;5069708;28;20028;-66
2022/08/04 06:03:40;;;;;;;1.92;1.23;;;26.30;50.70;25.20;100800.00;;;;5070057;28;20122;-66
2022/08/04 06:06:27;;;;;;;2.97;1.00;;;26.30;50.70;25.20;100801.00;;;;5076234;28;20082;-66
2022/08/04 06:09:13;;;;;;;2.63;1.00;;;26.30;50.80;25.20;100797.00;;;;5053647;28;20067;-66
2022/08/04 06:12:02;;;;;;;3.88;1.02;;;26.20;50.70;25.20;100803.00;;;;5073123;28;20097;-66
2022/08/04 06:14:51;;;;;;;2.22;1.05;;;26.30;50.70;25.20;100801.00;;;;5070726;28;20134;-66
2022/08/04 06:17:42;;;;;;;3.08;1.40;;;26.30;50.70;25.20;100798.00;;;;5065033;28;20067;-66
2022/08/04 06:20:31;;;;;;;3.10;1.45;;;26.30;50.70;25.20;100807.00;;;;5058075;28;20116;-66
2022/08/04 06:23:17;;;;;;;4.55;2.20;;;26.30;50.70;25.20;100803.00;;;;5068832;28;20044;-66
2022/08/04 06:26:03;;;;;;;3.05;1.35;;;26.20;50.70;25.20;100805.00;;;;5057615;28;20040;-66
2022/08/04 06:28:50;;;;;;;3.58;1.90;;;26.30;50.80;25.20;100802.00;;;;5069024;28;20032;-66
2022/08/04 06:31:42;;;;;;;5.22;1.90;;;26.30;50.80;25.20;100802.00;;;;5066528;28;20036;-66
2022/08/04 06:34:29;;;;;;;4.80;2.10;;;26.20;50.70;25.20;100797.00;;;;5057298;28;20074;-66
2022/08/04 06:37:15;;;;;;;4.53;1.60;;;26.20;50.70;25.20;100801.00;;;;5070388;28;20040;-66
2022/08/04 06:40:01;;;;;;;5.05;1.80;;;26.30;50.90;25.20;100801.00;;;;5070044;28;20046;-66
2022/08/04 06:42:48;;;;;;;2.77;1.33;;;26.30;50.90;25.20;100800.00;;;;5068267;28;20361;-66
2022/08/04 06:45:36;;;;;;;4.15;1.80;;;26.30;51.00;25.20;100803.00;;;;5060617;28;20040;-66
2022/08/04 06:48:22;;;;;;;3.90;1.65;;;26.30;50.90;25.20;100804.00;;;;5072305;28;20056;-66
2022/08/04 06:51:08;;;;;;;6.57;2.35;;;26.30;50.90;25.20;100796.00;;;;5054102;28;20551;-66
2022/08/04 06:53:54;;;;;;;3.00;1.88;;;26.30;50.90;25.20;100801.00;;;;5050264;28;20036;-66
2022/08/04 06:56:40;;;;;;;3.50;1.60;;;26.30;50.90;25.20;100799.00;;;;5068659;28;20035;-65
2022/08/04 06:59:26;;;;;;;5.03;1.90;;;26.30;50.90;25.20;100799.00;;;;5069148;28;20047;-66
2022/08/04 07:02:19;;;;;;;5.05;1.60;;;26.30;50.80;25.20;100788.00;;;;5071353;28;20429;-66
2022/08/04 07:05:06;;;;;;;3.33;1.92;;;26.20;50.70;25.20;100793.00;;;;5071329;28;20071;-66
2022/08/04 07:07:53;;;;;;;3.25;1.83;;;26.30;50.90;25.20;100794.00;;;;5053977;28;20040;-66
2022/08/04 07:10:39;;;;;;;7.95;2.80;;;26.30;50.80;25.20;100786.00;;;;5071637;28;20040;-66
2022/08/04 07:13:25;;;;;;;5.47;2.28;;;26.30;50.90;25.20;100777.00;;;;5077462;28;20371;-66
2022/08/04 07:16:14;;;;;;;4.90;2.15;;;26.30;50.90;25.20;100785.00;;;;5072584;28;20032;-66
2022/08/04 07:19:00;;;;;;;4.47;2.33;;;26.30;51.00;25.20;100780.00;;;;5068439;28;20032;-66
2022/08/04 07:21:46;;;;;;;5.93;2.10;;;26.30;51.00;25.20;100775.00;;;;5071090;28;20044;-66
2022/08/04 07:24:36;;;;;;;4.65;2.03;;;26.30;51.00;25.20;100777.00;;;;5066812;28;20489;-66
2022/08/04 07:27:22;;;;;;;5.10;2.13;;;26.30;51.10;25.20;100780.00;;;;5072497;28;20062;-66
2022/08/04 07:30:09;;;;;;;4.68;2.50;;;26.30;51.20;25.20;100781.00;;;;5083992;28;20040;-66
2022/08/04 07:32:55;;;;;;;5.13;1.95;;;26.30;51.20;25.20;100778.00;;;;5087811;28;20044;-66
2022/08/04 07:35:41;;;;;;;5.10;2.20;;;26.30;51.20;25.20;100780.00;;;;5075150;28;20047;-66
2022/08/04 07:38:27;;;;;;;5.13;2.17;;;26.30;51.30;25.20;100784.00;;;;5076855;28;20534;-66
2022/08/04 07:41:17;;;;;;;5.80;2.10;;;26.30;51.30;25.20;100776.00;;;;5088827;28;20496;-65
2022/08/04 07:44:03;;;;;;;4.57;1.90;;;26.30;51.20;25.20;100775.00;;;;5058478;28;20032;-66
2022/08/04 07:46:49;;;;;;;4.07;1.98;;;26.30;51.20;25.20;100774.00;;;;5062190;28;20519;-66
2022/08/04 07:49:36;;;;;;;4.18;2.33;;;26.20;51.40;25.20;100778.00;;;;5057690;28;20051;-66
2022/08/04 07:52:22;;;;;;;4.07;1.80;;;26.30;51.50;25.20;100776.00;;;;5072639;28;20121;-66
2022/08/04 07:55:08;;;;;;;7.13;2.30;;;26.20;51.30;25.20;100777.00;;;;5087477;28;21657;-66
2022/08/04 07:57:54;;;;;;;9.88;2.13;;;26.30;51.40;25.20;100783.00;;;;5072521;28;20036;-66
2022/08/04 08:00:40;;;;;;;4.53;2.20;;;26.30;51.60;25.20;100784.00;;;;5090208;28;20404;-66
2022/08/04 08:03:26;;;;;;;4.13;1.70;;;26.30;51.40;25.20;100780.00;;;;5078583;28;20101;-65
2022/08/04 08:06:12;;;;;;;3.67;1.80;;;26.30;51.40;25.20;100785.00;;;;5068042;28;20035;-66
2022/08/04 08:08:59;;;;;;;2.78;1.92;;;26.40;51.60;25.20;100778.00;;;;5071085;28;20496;-66
2022/08/04 08:11:48;;;;;;;3.20;1.70;;;26.30;51.50;25.20;100777.00;;;;5070729;28;20485;-66
2022/08/04 08:14:34;;;;;;;4.88;2.00;;;26.30;51.50;25.20;100783.00;;;;5085564;28;20046;-66
2022/08/04 08:17:20;;;;;;;4.87;2.00;;;26.30;51.50;25.20;100780.00;;;;5075005;28;20439;-66
2022/08/04 08:20:08;;;;;;;4.22;1.75;;;26.30;51.50;25.20;100771.00;;;;5068671;28;20045;-66
2022/08/04 08:22:54;;;;;;;6.47;2.63;;;26.30;51.60;25.20;100769.00;;;;5074389;28;20039;-66
2022/08/04 08:25:40;;;;;;;6.00;2.03;;;26.30;51.60;25.20;100773.00;;;;5072390;28;20043;-66
2022/08/04 08:28:26;;;;;;;2.75;2.00;;;26.30;51.60;25.20;100761.00;;;;5072937;28;20063;-66
2022/08/04 08:31:12;;;;;;;4.10;1.90;;;26.30;51.60;25.20;100767.00;;;;5069482;28;20040;-66
2022/08/04 08:33:59;;;;;;;3.45;1.88;;;26.20;51.50;25.20;100768.00;;;;5079387;28;20109;-66
2022/08/04 08:36:49;;;;;;;4.75;1.65;;;26.30;51.60;25.20;100771.00;;;;5074459;28;20040;-66
2022/08/04 08:39:57;;;;;;;3.40;1.73;;;26.20;51.40;25.20;100760.00;;;;5065726;28;20051;-66
2022/08/04 08:43:14;;;;;;;3.47;2.03;;;26.30;51.50;25.20;100751.00;;;;5053124;28;20040;-66
2022/08/04 08:46:40;;;;;;;4.22;2.03;;;26.30;51.70;25.20;100760.00;;;;5054650;28;20055;-66
2022/08/04 08:50:10;;;;;;;4.65;1.80;;;26.30;51.80;25.20;100757.00;;;;5069043;28;20425;-66
2022/08/04 08:53:51;;;;;;;6.63;2.20;;;26.30;51.80;25.10;100753.00;;;;5077773;28;20040;-66
2022/08/04 08:57:06;;;;;;;3.03;1.95;;;26.30;51.70;25.10;100754.00;;;;5084893;28;20047;-66
2022/08/04 09:00:17;;;;;;;3.63;1.90;;;26.30;51.70;25.10;100753.00;;;;5080015;28;20133;-66
2022/08/04 09:03:34;;;;;;;3.90;1.98;;;26.30;51.70;25.10;100761.00;;;;5065252;28;20040;-66
2022/08/04 09:06:43;;;;;;;3.63;2.25;;;26.30;51.80;25.10;100755.00;;;;5071160;28;20055;-66
2022/08/04 09:09:42;;;;;;;3.83;2.08;;;26.20;51.70;25.10;100767.00;;;;5071522;28;20039;-66
2022/08/04 09:12:54;;;;;;;5.53;1.88;;;26.30;51.80;25.10;100767.00;;;;5075365;28;20130;-66
2022/08/04 09:16:11;;;;;;;7.40;2.30;;;26.20;51.90;25.10;100760.00;;;;5050859;28;20035;-66
2022/08/04 09:19:35;;;;;;;5.55;2.25;;;26.20;51.80;25.10;100754.00;;;;5067068;28;20115;-66
2022/08/04 09:22:29;;;;;;;3.60;1.95;;;26.20;51.90;25.10;100761.00;;;;5061054;28;20043;-66
2022/08/04 09:25:27;;;;;;;5.03;2.33;;;26.30;51.90;25.10;100767.00;;;;5070785;28;20080;-66
2022/08/04 09:28:23;;;;;;;3.70;2.03;;;26.20;51.80;25.10;100763.00;;;;5057696;28;20067;-66
2022/08/04 09:31:15;;;;;;;2.83;1.80;;;26.30;51.90;25.20;100757.00;;;;5073686;28;20170;-67
2022/08/04 09:34:36;;;;;;;4.10;2.00;;;26.30;51.80;25.20;100766.00;;;;5085652;28;20048;-66
2022/08/04 09:37:40;;;;;;;2.50;2.05;;;26.30;51.80;25.20;100755.00;;;;5076128;28;20039;-66
2022/08/04 09:40:41;;;;;;;3.47;1.80;;;26.30;51.80;25.10;100755.00;;;;5078980;28;20044;-66
2022/08/04 09:43:48;;;;;;;3.83;1.95;;;26.30;51.90;25.20;100759.00;;;;5083420;28;20044;-66
2022/08/04 09:46:54;;;;;;;2.58;2.13;;;26.30;51.80;25.20;100749.00;;;;5055926;28;20072;-66
2022/08/04 09:49:56;;;;;;;4.53;2.00;;;26.30;51.90;25.20;100751.00;;;;5059700;28;20042;-66
2022/08/04 09:52:57;;;;;;;3.38;1.88;;;26.30;51.90;25.20;100744.00;;;;5074122;28;20243;-66
2022/08/04 09:55:52;;;;;;;6.80;2.47;;;26.30;51.80;25.20;100744.00;;;;5069201;28;20036;-66
2022/08/04 09:59:17;;;;;;;3.78;1.88;;;26.30;51.80;25.20;100749.00;;;;5069392;28;20115;-66
2022/08/04 10:02:07;;;;;;;4.65;2.13;;;26.30;51.90;25.20;100741.00;;;;5085767;28;20064;-66
2022/08/04 10:04:54;;;;;;;5.18;2.33;;;26.30;51.80;25.20;100745.00;;;;5067063;28;20072;-66
2022/08/04 10:07:47;;;;;;;2.10;1.63;;;26.30;51.90;25.20;100748.00;;;;5070144;28;20028;-65
2022/08/04 10:11:06;;;;;;;3.75;2.10;;;26.30;51.80;25.20;100750.00;;;;5058780;28;20379;-65
2022/08/04 10:13:59;;;;;;;;;;;26.30;51.80;25.10;100745.00;;;;5065282;28;20046;-65
2022/08/04 10:16:54;;;;;;;4.32;1.95;;;26.30;51.70;25.20;100746.00;;;;5067807;28;20145;-65
2022/08/04 10:19:41;;;;;;;4.30;2.20;;;26.30;51.60;25.20;100747.00;;;;5062090;28;20082;-66
2022/08/04 10:22:36;;;;;;;3.40;1.98;;;26.20;51.60;25.20;100745.00;;;;5085051;28;20123;-66
2022/08/04 10:25:41;;;;;;;3.20;1.92;;;26.20;52.40;25.20;100746.00;;;;5070864;28;20047;-65
2022/08/04 10:28:27;;;;;;;2.17;1.73;;;26.40;51.80;25.20;100744.00;;;;5071054;28;20071;-66
2022/08/04 10:31:19;;;;;;;4.13;1.98;;;26.30;51.80;25.20;100748.00;;;;5073598;28;20040;-66
2022/08/04 10:34:19;;;;;;;3.72;1.83;;;26.30;51.80;25.20;100756.00;;;;5068932;28;20040;-66
2022/08/04 10:37:29;;;;;;;3.88;1.85;;;26.30;51.70;25.20;100752.00;;;;5054778;28;20047;-66
2022/08/04 10:40:46;;;;;;;4.22;2.00;;;26.30;51.90;25.20;100750.00;;;;5055210;28;20131;-65
2022/08/04 10:43:45;;;;;;;3.75;1.75;;;26.30;51.90;25.20;100746.00;;;;5060554;28;20079;-66
2022/08/04 10:46:39;;;;;;;3.83;1.83;;;26.30;51.90;25.20;100747.00;;;;5066625;28;20432;-66
2022/08/04 10:49:50;;;;;;;2.13;1.65;;;26.40;51.90;25.20;100755.00;;;;5070132;28;20039;-66
2022/08/04 10:52:53;;;;;;;3.15;1.60;;;26.30;51.90;25.20;100753.00;;;;5067595;28;20086;-65
2022/08/04 10:55:49;;;;;;;2.20;1.67;;;26.30;52.00;25.20;100766.00;;;;5068782;28;20566;-66
2022/08/04 10:58:48;;;;;;;1.85;1.52;;;26.30;52.00;25.20;100763.00;;;;5067075;28;20245;-66
2022/08/04 11:01:44;;;;;;;3.60;2.00;;;26.40;52.00;25.20;100761.00;;;;5073147;28;20039;-66
2022/08/04 11:04:47;;;;;;;2.75;1.98;;;26.40;52.10;25.20;100769.00;;;;5078231;28;20044;-66
2022/08/04 11:07:33;;;;;;;5.07;1.77;;;26.40;52.10;25.30;100760.00;;;;5061899;28;20110;-66
2022/08/04 11:10:22;;;;;;;3.70;1.70;;;26.40;52.80;25.30;100760.00;;;;5072869;28;20036;-65
2022/08/04 11:13:10;;;;;;;5.90;2.63;;;26.40;52.10;25.30;100766.00;;;;5075777;28;20088;-66
2022/08/04 11:15:56;;;;;;;4.13;2.00;;;26.40;52.20;25.30;100772.00;;;;5073876;28;20379;-66
2022/08/04 11:19:30;;;;;;;2.20;1.52;;;26.40;52.10;25.30;100773.00;;;;5070084;28;20046;-66
2022/08/04 11:22:22;;;;;;;5.65;1.77;;;26.50;52.10;25.30;100770.00;;;;5081940;28;20123;-66
2022/08/04 11:25:18;;;;;;;4.20;2.20;;;26.40;52.00;25.30;100767.00;;;;5082443;28;20044;-66
2022/08/04 11:28:22;;;;;;;2.75;1.90;;;26.50;52.10;25.30;100771.00;;;;5073729;28;20039;-66
2022/08/04 11:31:31;;;;;;;4.65;2.20;;;26.50;52.10;25.30;100766.00;;;;5073633;28;20082;-66
2022/08/04 11:34:25;;;;;;;5.40;3.33;;;26.50;52.10;25.40;100765.00;;;;5074312;28;20292;-66
2022/08/04 11:37:27;;;;;;;3.70;2.20;;;26.60;52.10;25.40;100770.00;;;;5090276;28;20047;-66
2022/08/04 11:40:23;;;;;;;3.03;1.80;;;26.60;52.10;25.40;100765.00;;;;5068758;28;20036;-65
2022/08/04 11:43:15;;;;;;;3.20;1.60;;;26.60;52.70;25.40;100773.00;;;;5074746;28;20036;-65
2022/08/04 11:46:07;;;;;;;3.25;2.25;;;26.60;51.90;25.40;100764.00;;;;5062420;28;20048;-66
2022/08/04 11:49:15;;;;;;;3.38;2.28;;;26.60;51.20;25.40;100771.00;;;;5058942;28;20036;-66
2022/08/04 11:52:01;;;;;;;3.30;2.15;;;26.60;51.80;25.40;100770.00;;;;5049124;28;20067;-66
2022/08/04 11:54:48;;;;;;;3.90;2.03;;;26.60;51.70;25.40;100777.00;;;;5074369;28;20046;-66
2022/08/04 11:57:34;;;;;;;2.00;1.80;;;26.70;51.80;25.50;100781.00;;;;5070761;28;20044;-66
2022/08/04 12:00:20;;;;;;;4.95;1.88;;;26.70;51.70;25.50;100786.00;;;;5071780;28;20036;-65
2022/08/04 12:03:38;;;;;;;3.10;2.00;;;26.70;51.70;25.50;100784.00;;;;5058729;28;20051;-66
2022/08/04 12:06:31;;;;;;;2.33;2.10;;;26.70;51.70;25.50;100791.00;;;;5074665;28;20036;-65
2022/08/04 12:09:28;;;;;;;2.80;1.92;;;26.70;51.60;25.50;100781.00;;;;5068016;28;20290;-66
2022/08/04 12:12:46;;;;;;;2.60;1.73;;;26.70;51.70;25.50;100800.00;;;;5071740;28;20051;-66
2022/08/04 12:15:57;;;;;;;5.82;2.38;;;26.70;51.70;25.50;100797.00;;;;5083603;28;20474;-66
2022/08/04 12:19:05;;;;;;;4.95;1.90;;;26.70;51.60;25.50;100796.00;;;;5073649;28;20439;-66
2022/08/04 12:21:58;;;;;;;4.70;2.10;;;26.70;51.60;25.50;100795.00;;;;5069996;28;20032;-66
2022/08/04 12:25:06;;;;;;;3.78;2.03;;;26.70;51.60;25.50;100799.00;;;;5069049;28;20044;-66
2022/08/04 12:28:00;;;;;;;3.13;2.20;;;26.60;51.60;25.50;100807.00;;;;5079789;28;20122;-66
2022/08/04 12:30:50;;;;;;;10.95;2.25;;;26.80;51.70;25.50;100808.00;;;;5069424;28;20367;-66
2022/08/04 12:33:53;;;;;;;2.95;1.75;;;26.80;51.80;25.50;100812.00;;;;5071157;28;20043;-66
2022/08/04 12:36:54;;;;;;;3.58;1.70;;;26.80;51.70;25.50;100822.00;;;;5043878;28;20040;-66
2022/08/04 12:39:40;;;;;;;2.15;1.77;;;26.70;51.70;25.60;100823.00;;;;5070573;28;20436;-65
2022/08/04 12:42:43;;;;;;;2.40;1.73;;;26.80;51.60;25.60;100834.00;;;;5072917;28;20028;-66
2022/08/04 12:45:29;;;;;;;3.97;1.80;;;26.80;51.70;25.60;100832.00;;;;5052829;28;20062;-65
2022/08/04 12:48:17;;;;;;;4.68;2.00;;;26.70;51.50;25.60;100847.00;;;;5071885;28;20062;-66
2022/08/04 12:51:03;;;;;;;;;;;26.80;51.50;25.60;100870.00;;;;5056170;28;20078;-66
2022/08/04 12:53:50;;;;;;;6.93;1.80;;;26.80;51.60;25.60;100870.00;;;;5069072;28;19920;-66
2022/08/04 12:56:36;;;;;;;4.18;1.90;;;26.90;52.10;25.60;100873.00;;;;5082239;28;20047;-66
2022/08/04 12:59:22;;;;;;;6.72;2.17;;;26.90;51.60;25.70;100880.00;;;;5057082;28;20041;-65
2022/08/04 13:02:22;;;;;;;6.72;2.20;;;26.90;51.60;25.70;100893.00;;;;5058041;28;20559;-66
2022/08/04 13:05:08;;;;;;;5.32;1.70;;;26.90;51.70;25.70;100882.00;;;;5068079;28;20040;-66
2022/08/04 13:07:54;;;;;;;6.57;2.00;;;26.90;51.60;25.70;100889.00;;;;5054422;28;20131;-66